Latest Weather Observations for Rabbit Flat

IDD60801

Issued at 4:01 pm CST Friday 21 July 2017 (issued every 30 minutes, with the page automatically refreshed every 10 minutes)

About weather observations | Map of weather stations | Latest weather observations for NT | Other Formats
Station Details ID: 015666 Name: RABBIT FLAT Lat: -20.18 Lon: 130.01 Height: 340.0 m
Data from the previous 72 hours. | See also: Recent months at Rabbit Flat
Date/Time
CST
Temp
°C
App
Temp
°C
Dew
Point
°C
Rel
Hum
%
Delta-T
°C
Wind Press
QNH
hPa
Press
MSL
hPa
Rain since
9am
mm
Dir  Spd
km/h
Gust
km/h
Spd
kts
Gust
kts
21/04:00pm 27.5 22.2 -3.3 13 13.8 E 15 20 8 11 1016.6 - 0.0
21/03:30pm 27.6 21.6 -3.3 13 13.9 NE 19 32 10 17 1016.7 - 0.0
21/03:00pm 27.3 21.2 -3.5 13 13.7 NE 19 26 10 14 1016.8 1016.2 0.0
21/02:30pm 27.3 21.6 -3.5 13 13.8 NE 17 26 9 14 1017.1 - 0.0
21/02:00pm 27.0 21.0 -2.7 14 13.4 ENE 19 28 10 15 1017.5 - 0.0
21/01:30pm 26.6 21.4 -3.1 14 13.3 ENE 15 24 8 13 1018.0 - 0.0
21/01:00pm 26.5 21.7 -2.2 15 13.1 ENE 13 20 7 11 1018.7 - 0.0
21/12:30pm 25.8 20.6 -2.8 15 12.8 ENE 15 22 8 12 1019.4 - 0.0
21/12:00pm 25.3 21.0 -1.5 17 12.2 NE 11 15 6 8 1019.9 1019.3 0.0
21/11:30am 24.5 20.2 -1.3 18 11.7 NE 11 17 6 9 1020.3 - 0.0
21/11:00am 23.0 18.4 -1.1 20 10.9 NNE 13 19 7 10 1020.5 - 0.0
21/10:30am 21.8 17.2 -0.8 22 10.2 NNE 13 19 7 10 1020.5 - 0.0
21/10:00am 20.4 15.6 0.3 26 9.1 NE 15 20 8 11 1020.5 - 0.0
21/09:30am 17.6 14.4 0.7 32 7.6 NNE 7 11 4 6 1020.5 - 0.0
21/09:00am 15.2 12.5 0.6 37 6.4 NNE 4 13 2 7 1020.2 1019.6 0.0
21/08:30am 12.2 10.4 1.2 47 4.7 CALM 0 0 0 0 1019.9 - 0.0
21/08:25am 11.7 9.9 1.4 49 4.4 CALM 0 0 0 0 1019.8 - 0.0
21/08:00am 6.7 4.7 -0.3 61 2.8 CALM 0 0 0 0 1019.5 - 0.0
21/07:30am 4.7 2.5 -1.9 62 2.4 CALM 0 0 0 0 1019.1 - 0.0
21/07:00am 4.9 1.5 -1.8 62 2.5 N 6 7 3 4 1018.7 - 0.0
21/06:30am 5.1 1.8 -1.6 62 2.5 NW 6 7 3 4 1018.5 - 0.0
21/06:00am 5.2 2.9 -2.4 58 2.8 CALM 0 0 0 0 1018.3 1017.7 0.0
21/05:30am 5.6 3.4 -1.3 61 2.6 CALM 0 2 0 1 1018.2 - 0.0
21/05:00am 5.9 2.6 -1.5 59 2.8 WNW 6 6 3 3 1018.1 - 0.0
21/04:30am 6.2 2.8 -2.4 54 3.2 WNW 6 7 3 4 1018.0 - 0.0
21/04:00am 6.5 3.0 -1.2 58 3.0 WNW 7 9 4 5 1018.0 - 0.0
21/03:30am 6.6 3.1 -2.5 52 3.4 W 6 7 3 4 1018.1 - 0.0
21/03:00am 7.1 3.6 -1.3 55 3.2 NW 7 9 4 5 1018.2 1017.6 0.0
21/02:30am 6.7 3.0 -2.7 51 3.5 WNW 7 9 4 5 1018.5 - 0.0
21/02:00am 7.2 3.5 -2.5 50 3.6 NW 7 9 4 5 1018.7 - 0.0
21/01:30am 7.5 3.8 -2.5 49 3.8 W 7 9 4 5 1018.7 - 0.0
21/01:00am 8.0 4.6 -2.3 48 3.9 N 6 7 3 4 1018.5 - 0.0
21/12:30am 8.6 6.2 -2.9 44 4.3 CALM 0 0 0 0 1018.4 - 0.0
21/12:00am 9.1 6.9 -1.9 46 4.3 CALM 0 0 0 0 1018.4 1017.8 0.0
 
Date/Time
CST
Temp
°C
App
Temp
°C
Dew
Point
°C
Rel
Hum
%
Delta-T
°C
Wind Press
QNH
hPa
Press
MSL
hPa
Rain since
9am
mm
Dir  Spd
km/h
Gust
km/h
Spd
kts
Gust
kts
20/11:30pm 9.4 6.3 -2.5 43 4.6 N 4 6 2 3 1018.4 - 0.0
20/11:00pm 10.3 6.6 -2.7 40 5.0 N 7 7 4 4 1018.2 - 0.0
20/10:30pm 10.8 8.1 -2.2 40 5.1 NNE 2 7 1 4 1018.4 - 0.0
20/10:00pm 11.9 9.6 -2.7 36 5.7 CALM 0 2 0 1 1018.5 - 0.0
20/09:30pm 12.8 9.7 -3.0 33 6.2 N 4 6 2 3 1018.4 - 0.0
20/09:00pm 14.7 11.0 -2.7 30 7.0 N 7 7 4 4 1018.2 - 0.0
20/08:30pm 16.4 12.7 -2.6 27 7.8 NNE 7 9 4 5 1017.9 - 0.0
20/08:00pm 18.2 14.2 -2.1 25 8.6 NE 9 11 5 6 1017.6 - 0.0
20/07:30pm 19.3 14.9 -2.3 23 9.2 NE 11 13 6 7 1017.2 - 0.0
20/07:00pm 19.8 15.8 -2.5 22 9.5 NE 9 11 5 6 1016.8 - 0.0
20/06:30pm 22.5 18.8 -3.0 18 11.0 NE 7 11 4 6 1016.4 - 0.0
20/06:00pm 24.9 21.1 -3.5 15 12.4 E 7 11 4 6 1016.1 1015.4 0.0
20/05:30pm 25.7 22.2 -2.8 15 12.7 ENE 6 9 3 5 1015.7 - 0.0
20/05:00pm 25.7 21.6 -2.8 15 12.7 E 9 15 5 8 1015.9 - 0.0
20/04:30pm 25.9 21.8 -2.7 15 12.8 NE 9 17 5 9 1015.7 - 0.0
20/04:00pm 25.9 21.0 -3.6 14 13.0 E 13 26 7 14 1016.1 - 0.0
20/03:30pm 26.4 22.0 -2.3 15 13.0 E 11 22 6 12 1016.2 - 0.0
20/03:00pm 25.9 21.5 -2.7 15 12.8 NNE 11 20 6 11 1016.4 1015.7 0.0
20/02:30pm 26.3 22.3 -2.4 15 13.0 NNE 9 17 5 9 1016.9 - 0.0
20/02:00pm 25.6 21.1 -2.9 15 12.7 NNE 11 20 6 11 1017.5 - 0.0
20/01:30pm 25.5 20.9 -1.3 17 12.3 NNE 13 19 7 10 1018.0 - 0.0
20/01:00pm 24.9 19.6 -0.3 19 11.7 NNE 17 26 9 14 1018.5 - 0.0
20/12:30pm 23.4 18.5 -0.8 20 11.0 NE 15 20 8 11 1019.3 - 0.0
20/12:00pm 22.4 17.1 -0.3 22 10.3 NNE 17 20 9 11 1019.8 1019.2 0.0
20/11:30am 22.3 16.7 0.2 23 10.2 NE 19 30 10 16 1020.1 - 0.0
20/11:00am 20.5 14.7 -0.2 25 9.3 NE 20 28 11 15 1020.4 - 0.0
20/10:30am 20.1 14.3 0.0 26 9.0 NE 20 28 11 15 1020.5 - 0.0
20/10:00am 18.8 12.7 0.4 29 8.3 NE 22 32 12 17 1020.6 - 0.0
20/09:30am 17.2 11.6 1.2 34 7.2 NE 20 30 11 16 1020.3 - 0.0
20/09:00am 15.9 11.4 2.3 40 6.2 NE 15 22 8 12 1020.1 1019.5 0.0
20/08:30am 13.2 11.5 4.1 54 4.2 N 2 6 1 3 1020.3 - 0.0
20/08:26am 12.6 11.3 4.3 57 3.8 CALM 0 6 0 3 1020.3 - 0.0
20/08:00am 7.6 4.8 1.9 67 2.4 N 6 7 3 4 1020.2 - 0.0
20/07:30am 6.6 4.1 1.5 70 2.1 NNE 4 9 2 5 1019.8 - 0.0
20/07:00am 7.8 4.9 2.7 70 2.2 N 7 9 4 5 1019.6 - 0.0
20/06:30am 8.5 5.8 2.9 68 2.4 W 6 7 3 4 1019.6 - 0.0
20/06:00am 8.3 5.3 0.5 58 3.2 NNE 6 7 3 4 1019.4 1018.8 0.0
20/05:30am 11.3 8.4 2.6 55 3.8 NNE 7 9 4 5 1019.1 - 0.0
20/05:00am 12.6 9.3 2.7 51 4.4 NNE 9 11 5 6 1018.7 - 0.0
20/04:30am 13.3 10.1 3.1 50 4.6 NNE 9 9 5 5 1018.7 - 0.0
20/04:00am 14.4 11.1 2.6 45 5.3 NE 9 13 5 7 1018.5 - 0.0
20/03:30am 15.3 11.7 3.1 44 5.6 NE 11 17 6 9 1018.4 - 0.0
20/03:00am 15.5 11.9 3.0 43 5.7 NE 11 17 6 9 1018.6 1018.0 0.0
20/02:30am 16.0 12.9 3.4 43 5.9 NE 9 17 5 9 1018.6 - 0.0
20/02:00am 16.1 13.1 3.9 44 5.8 NE 9 15 5 8 1018.7 - 0.0
20/01:30am 16.0 12.6 3.8 44 5.7 NE 11 17 6 9 1018.4 - 0.0
20/01:00am 17.4 13.6 3.7 40 6.5 NE 13 19 7 10 1018.4 - 0.0
20/12:30am 17.0 13.2 4.0 42 6.2 NE 13 19 7 10 1018.2 - 0.0
20/12:00am 16.2 12.7 3.6 43 5.9 NE 11 13 6 7 1018.4 1017.8 0.0
 
Date/Time
CST
Temp
°C
App
Temp
°C
Dew
Point
°C
Rel
Hum
%
Delta-T
°C
Wind Press
QNH
hPa
Press
MSL
hPa
Rain since
9am
mm
Dir  Spd
km/h
Gust
km/h
Spd
kts
Gust
kts
19/11:30pm 16.9 13.4 3.6 41 6.3 NE 11 17 6 9 1018.6 - 0.0
19/11:00pm 16.6 13.1 3.3 41 6.2 ENE 11 17 6 9 1018.8 - 0.0
19/10:30pm 16.3 13.0 2.3 39 6.4 ENE 9 11 5 6 1019.0 - 0.0
19/10:00pm 17.5 13.8 2.3 36 7.0 ENE 11 13 6 7 1019.0 - 0.0
19/09:30pm 17.7 14.3 1.7 34 7.3 NE 9 11 5 6 1019.0 - 0.0
19/09:00pm 19.2 15.5 2.1 32 7.9 ENE 11 15 6 8 1019.0 1018.3 0.0
19/08:30pm 19.3 15.9 1.8 31 8.1 ENE 9 11 5 6 1018.4 - 0.0
19/08:00pm 20.0 16.5 1.0 28 8.7 ENE 9 13 5 7 1018.1 - 0.0
19/07:30pm 21.3 17.5 1.6 27 9.2 E 11 13 6 7 1017.8 - 0.0
19/07:00pm 22.4 18.8 0.9 24 10.0 ENE 9 11 5 6 1017.5 - 0.0
19/06:30pm 24.4 21.1 0.0 20 11.4 ENE 7 11 4 6 1017.2 - 0.0
19/06:00pm 26.3 22.2 0.1 18 12.4 ENE 11 15 6 8 1016.9 1016.3 0.0
19/05:30pm 27.2 23.5 0.1 17 12.9 E 9 15 5 8 1016.6 - 0.0
19/05:00pm 27.8 23.7 -0.3 16 13.4 E 11 20 6 11 1016.5 - 0.0
19/04:30pm 27.9 23.0 -0.2 16 13.4 ENE 15 26 8 14 1016.5 - 0.0
19/04:00pm 28.0 23.7 0.7 17 13.2 ENE 13 20 7 11 1016.5 - 0.0
19/03:30pm 27.7 23.3 0.5 17 13.1 ENE 13 20 7 11 1016.6 - 0.0
19/03:00pm 28.1 23.9 1.6 18 13.0 NNE 13 22 7 12 1016.9 1016.3 0.0
19/02:30pm 27.3 22.7 1.7 19 12.6 NE 15 24 8 13 1017.5 - 0.0
19/02:00pm 27.5 22.9 1.8 19 12.7 NNE 15 24 8 13 1017.9 - 0.0
19/01:30pm 26.8 22.4 2.7 21 12.0 NE 15 26 8 14 1018.5 - 0.0
19/01:00pm 26.0 21.6 2.7 22 11.5 ENE 15 26 8 14 1019.1 - 0.0
19/12:30pm 25.3 20.5 2.7 23 11.1 ENE 17 24 9 13 1019.7 - 0.0
19/12:00pm 24.8 20.1 2.9 24 10.8 NE 17 24 9 13 1020.1 1019.5 0.0
19/11:30am 24.4 20.2 3.7 26 10.3 ENE 15 24 8 13 1020.6 - 0.0
19/11:00am 23.4 18.4 3.4 27 9.9 NE 19 26 10 14 1020.9 - 0.0
19/10:30am 22.8 17.9 3.9 29 9.4 ENE 19 28 10 15 1020.9 - 0.0
19/10:00am 21.1 15.9 3.8 32 8.5 ENE 20 28 11 15 1021.1 - 0.0
19/09:30am 19.8 16.1 4.3 36 7.6 ENE 13 20 7 11 1020.9 - 0.0
19/09:00am 16.7 14.0 3.7 42 6.1 E 7 9 4 5 1020.9 1020.3 0.0
19/08:30am 14.3 11.6 3.7 49 4.9 SE 7 9 4 5 1020.7 - 0.0
19/08:26am 13.7 11.0 3.8 51 4.6 SE 7 9 4 5 1020.6 - 0.0
19/08:00am 8.7 6.9 1.1 59 3.2 CALM 0 0 0 0 1020.3 - 0.0
19/07:30am 7.5 4.7 -0.2 58 3.1 SSE 4 7 2 4 1020.1 - 0.0
19/07:00am 9.6 6.6 1.8 58 3.3 SSE 7 9 4 5 1019.9 - 0.0
19/06:30am 9.3 5.8 1.5 58 3.3 S 9 11 5 6 1019.5 - 0.0
19/06:00am 8.4 5.3 1.3 61 2.9 S 7 11 4 6 1019.4 1018.8 0.0
19/05:30am 8.7 6.0 0.2 55 3.5 S 4 6 2 3 1019.2 - 0.0
19/05:00am 9.7 6.1 0.6 53 3.8 SSW 9 11 5 6 1019.1 - 0.0
19/04:30am 11.1 8.1 1.1 50 4.3 SW 6 7 3 4 1019.1 - 0.0
19/04:00am 12.6 9.6 1.0 45 5.0 SSW 6 7 3 4 1019.1 - 0.0
19/03:30am 13.2 9.7 1.2 44 5.2 S 9 11 5 6 1019.1 - 0.0
19/03:00am 12.9 9.7 0.6 43 5.2 S 7 11 4 6 1019.2 1018.5 0.0
19/02:30am 13.4 9.9 1.1 43 5.3 S 9 11 5 6 1019.3 - 0.0
19/02:00am 14.3 10.7 0.5 39 6.0 S 9 11 5 6 1019.4 - 0.0
19/01:30am 15.2 11.3 1.4 39 6.1 S 11 13 6 7 1019.5 - 0.0
19/01:00am 13.8 10.3 1.5 43 5.4 S 9 11 5 6 1019.4 - 0.0
19/12:30am 14.3 10.5 1.9 43 5.5 S 11 13 6 7 1019.3 - 0.0
19/12:00am 14.7 10.9 1.9 42 5.7 SSE 11 13 6 7 1019.5 1018.9 0.0
 
Date/Time
CST
Temp
°C
App
Temp
°C
Dew
Point
°C
Rel
Hum
%
Delta-T
°C
Wind Press
QNH
hPa
Press
MSL
hPa
Rain since
9am
mm
Dir  Spd
km/h
Gust
km/h
Spd
kts
Gust
kts
18/11:30pm 15.4 11.9 1.5 39 6.2 SE 9 11 5 6 1019.6 - 0.0
18/11:00pm 13.7 10.5 1.0 42 5.5 WSW 7 13 4 7 1019.6 - 0.0
18/10:30pm 13.7 11.0 0.0 39 5.8 NW 4 9 2 5 1019.5 - 0.0
18/10:00pm 14.7 12.0 0.2 37 6.3 ENE 4 6 2 3 1019.4 - 0.0
18/09:30pm 15.4 12.3 0.0 35 6.7 ESE 6 11 3 6 1019.3 - 0.0
18/09:00pm 16.0 12.8 -0.7 32 7.1 E 6 9 3 5 1019.0 1018.3 0.0
18/08:30pm 17.0 13.8 -0.7 30 7.6 ESE 6 7 3 4 1018.7 - 0.0
18/08:00pm 18.3 15.2 0.0 29 8.1 ESE 6 7 3 4 1018.5 - 0.0
18/07:30pm 20.8 17.4 -0.5 24 9.6 ESE 7 7 4 4 1018.3 - 0.0
18/07:00pm 23.1 19.7 -0.4 21 10.8 SSE 7 9 4 5 1017.9 - 0.0
18/06:30pm 25.5 21.6 -1.3 17 12.3 S 9 11 5 6 1017.7 - 0.0
18/06:00pm 28.1 24.3 -0.9 15 13.6 SSE 9 13 5 7 1017.6 1017.0 0.0
18/05:30pm 29.0 24.4 -1.2 14 14.2 SSE 13 20 7 11 1017.4 - 0.0
18/05:00pm 29.4 24.8 -0.9 14 14.4 ESE 13 19 7 10 1017.2 - 0.0
18/04:30pm 29.4 24.8 -0.9 14 14.4 ESE 13 20 7 11 1017.1 - 0.0

Other Formats:

Comma delimited format used in spreadsheet applications
http://www.bom.gov.au/fwo/IDD60801/IDD60801.95322.axf

JavaScript Object Notation format (JSON) in row-major order
http://www.bom.gov.au/fwo/IDD60801/IDD60801.95322.json